Tromso, Norway

3:20 PM CEST on October 22, 2014 (GMT +0200)
Langnes | Change Station
CLOSE
Current Station
Personal Weather Station
Location: Tromso, TROMS
Elevation: 154 ft
Nearby Weather Stations

Elev 154 ft 69.67 °N, 18.91 °E | Updated 6 minutes ago

Clear
Clear
36.9 °F
Feels Like 29 °F
N
12.3
Wind Variable Wind from East
Gusts 25.9 mph

Today
High -- | Low -- °F
--% Chance of Precip.
Yesterday
High -- | Low -- °F
Precip. -- in
8:24 AM 4:31 PM
Waning Crescent, 2% visible
Pressure 29.89 in
Visibility -9999.0 miles
Clouds
Windchill 29 °F
Dew Point 25 °F
Humidity 62%
Rainfall 0.00 in
Snow Depth Not available.
UV 0.0 out of 12
Pollen Not available.
Air Quality Not available.
Flu Activity Not available.
METAR ENTC 221250Z 19027KT CAVOK 02/M06 Q1012 TEMPO 16020G30KT RMK WIND 2600FT 17049KT

More Conditions Fewer Conditions

Pressure 29.89 in
Visibility -9999.0 miles
Clouds
Windchill 29 °F
Dew Point 25 °F
Humidity 62%
Rainfall 0.00 in
Snow Depth Not available.
UV 0.0 out of 12
Pollen Not available.
Air Quality Not available.
Flu Activity Not available.
METAR ENTC 221250Z 19027KT CAVOK 02/M06 Q1012 TEMPO 16020G30KT RMK WIND 2600FT 17049KT

More Conditions Fewer Conditions

10-Day Weather Forecast

Almanac

Astronomy

Oct. 22, 2014 Rise Set
Actual Time 8:24 AM CEST 4:31 PM CEST
Civil Twilight 7:19 AM CEST 5:36 PM CEST
Nautical Twilight 6:09 AM CEST 6:46 PM CEST
Astronomical Twilight 4:59 AM CEST 7:55 PM CEST
Moon 6:00 AM CEST 4:24 PM CEST
Length of Visible Light 10h 17m
Length of Day
8h 07m
Tomorrow will be 9m 3s shorter.
Waning Crescent, 2% of the Moon is Illuminated
Today
Waning Crescent
Oct 23
New
Oct 30
First Quarter
Nov 6
Full
Nov 14
Last Quarter

Yesterday's Extremes

Country Highs Country Lows

Community

WunderPhotos

Upload Photos

1,763,917 photos uploaded!

Nearby

Snow Depth

Not available.

Earthquake Activity

City Distance Mag. Time & Date
No recent earthquake activity has been reported nearby.
Minimum magnitude displayed is 2.5.

Coastal Water Temperatures

Place Temperature
No Stations Reporting

Nearby Weather Stations